createdAt,value
2023-02-02T00:00:28.347Z,23.75
2023-02-02T00:02:55.107Z,18.35
2023-02-02T00:05:22.007Z,20.33
2023-02-02T00:07:48.951Z,12.13
2023-02-02T00:10:15.643Z,24.08
2023-02-02T00:12:42.329Z,18.75
2023-02-02T00:15:09.357Z,26.83
2023-02-02T00:17:36.138Z,18.50
2023-02-02T00:20:02.928Z,17.40
2023-02-02T00:22:29.355Z,26.50
2023-02-02T00:24:56.291Z,23.98
2023-02-02T00:27:22.765Z,35.75
2023-02-02T00:29:53.911Z,27.08
2023-02-02T00:32:20.557Z,22.20
2023-02-02T00:34:47.320Z,19.85
2023-02-02T00:37:13.915Z,26.10
2023-02-02T00:39:40.365Z,14.20
2023-02-02T00:42:10.970Z,23.52
2023-02-02T00:44:56.324Z,21.30
2023-02-02T00:47:23.030Z,26.05
2023-02-02T00:49:49.599Z,16.02
2023-02-02T00:52:17.564Z,27.60
2023-02-02T00:54:44.549Z,24.52
2023-02-02T00:57:15.217Z,15.57
2023-02-02T01:05:16.966Z,21.90
2023-02-02T01:08:53.411Z,21.70
2023-02-02T01:11:40.000Z,23.30
2023-02-02T01:14:27.261Z,21.35
2023-02-02T01:17:15.783Z,22.65
2023-02-02T01:23:37.094Z,21.50
2023-02-02T01:26:06.844Z,22.60
2023-02-02T01:28:53.536Z,19.83
2023-02-02T01:35:16.852Z,20.40
2023-02-02T01:37:43.428Z,24.05
2023-02-02T01:40:11.100Z,23.83
2023-02-02T01:42:37.563Z,19.48
2023-02-02T01:45:42.577Z,21.70
2023-02-02T01:48:10.613Z,21.80
2023-02-02T01:51:01.685Z,23.65
2023-02-02T01:53:51.370Z,25.08
2023-02-02T01:56:52.267Z,23.70
2023-02-02T01:59:39.160Z,24.10
2023-02-02T02:02:27.875Z,23.55
2023-02-02T02:04:55.375Z,22.42
2023-02-02T02:07:22.508Z,28.55
2023-02-02T02:09:49.205Z,18.70
2023-02-02T02:12:17.056Z,26.95
2023-02-02T02:15:05.408Z,19.70
2023-02-02T02:18:08.770Z,22.38
2023-02-02T02:21:14.191Z,18.58
2023-02-02T02:24:24.685Z,20.10
2023-02-02T02:29:48.939Z,26.20
2023-02-02T02:32:44.691Z,20.33
2023-02-02T02:35:26.062Z,19.13
2023-02-02T02:38:25.389Z,22.50
2023-02-02T02:41:00.521Z,15.18
2023-02-02T02:43:31.941Z,15.02
2023-02-02T02:45:59.002Z,23.65
2023-02-02T02:48:25.913Z,18.35
2023-02-02T02:50:52.583Z,31.20
2023-02-02T02:53:24.693Z,16.40
2023-02-02T02:55:58.064Z,20.20
2023-02-02T02:58:50.485Z,16.23
2023-02-02T03:01:48.135Z,22.35
2023-02-02T03:04:44.865Z,23.08
2023-02-02T03:07:22.817Z,25.42
2023-02-02T03:09:51.741Z,17.35
2023-02-02T03:12:18.448Z,24.50
2023-02-02T03:14:45.080Z,24.35
2023-02-02T03:17:11.897Z,27.33
2023-02-02T03:19:38.328Z,23.38
2023-02-02T03:22:04.966Z,21.00
2023-02-02T03:24:31.691Z,17.23
2023-02-02T03:26:58.178Z,27.23
2023-02-02T03:29:25.651Z,20.85
2023-02-02T03:31:52.649Z,16.25
2023-02-02T03:34:19.108Z,32.28
2023-02-02T03:36:45.860Z,20.83
2023-02-02T03:39:12.795Z,23.05
2023-02-02T03:41:39.701Z,17.55
2023-02-02T03:44:06.346Z,18.33
2023-02-02T03:46:33.225Z,19.88
2023-02-02T03:48:59.762Z,19.48
2023-02-02T03:51:26.913Z,28.65
2023-02-02T03:53:53.375Z,21.90
2023-02-02T03:56:20.154Z,20.92
2023-02-02T03:58:47.263Z,19.98
2023-02-02T04:01:15.206Z,21.15
2023-02-02T04:03:42.062Z,18.60
2023-02-02T04:06:09.359Z,23.23
2023-02-02T04:08:36.122Z,19.67
2023-02-02T04:11:03.056Z,22.05
2023-02-02T04:13:29.558Z,16.92
2023-02-02T04:16:00.704Z,28.55
2023-02-02T04:18:28.173Z,24.27
2023-02-02T04:20:59.591Z,23.23
2023-02-02T04:23:27.134Z,21.70
2023-02-02T04:25:54.365Z,19.60
2023-02-02T04:28:22.446Z,22.35
2023-02-02T04:30:53.560Z,16.25
2023-02-02T04:33:22.026Z,17.83
2023-02-02T04:35:49.518Z,18.98
2023-02-02T04:38:16.063Z,19.77
2023-02-02T04:40:44.969Z,19.15
2023-02-02T04:43:12.147Z,12.80
2023-02-02T04:45:39.300Z,15.60
2023-02-02T04:48:06.403Z,20.08
2023-02-02T04:50:33.118Z,19.63
2023-02-02T04:53:00.003Z,12.85
2023-02-02T04:55:26.929Z,19.35
2023-02-02T04:57:53.548Z,15.70
2023-02-02T05:00:20.788Z,24.35
2023-02-02T05:02:47.406Z,17.83
2023-02-02T05:05:14.960Z,15.75
2023-02-02T05:07:41.793Z,10.73
2023-02-02T05:10:10.308Z,20.23
2023-02-02T05:12:36.888Z,17.58
2023-02-02T05:15:05.348Z,18.15
2023-02-02T05:17:33.124Z,14.20
2023-02-02T05:19:59.509Z,19.75
2023-02-02T05:22:26.831Z,17.40
2023-02-02T05:24:53.472Z,17.05
2023-02-02T05:27:23.304Z,18.38
2023-02-02T05:29:49.970Z,16.17
2023-02-02T05:32:16.662Z,14.95
2023-02-02T05:34:43.580Z,20.65
2023-02-02T05:37:10.204Z,16.83
2023-02-02T05:39:36.977Z,16.50
2023-02-02T05:42:03.752Z,14.55
2023-02-02T05:44:30.669Z,20.30
2023-02-02T05:46:57.151Z,17.58
2023-02-02T05:49:26.895Z,15.00
2023-02-02T05:51:57.254Z,15.73
2023-02-02T05:54:24.538Z,20.15
2023-02-02T05:56:53.422Z,11.65
2023-02-02T05:59:20.222Z,16.95
2023-02-02T06:01:47.520Z,15.10
2023-02-02T06:04:16.018Z,14.68
2023-02-02T06:06:42.909Z,18.05
2023-02-02T06:09:09.967Z,16.73
2023-02-02T06:11:36.630Z,17.02
2023-02-02T06:14:03.132Z,15.95
2023-02-02T06:16:29.804Z,16.23
2023-02-02T06:18:56.697Z,16.90
2023-02-02T06:21:24.882Z,17.50
2023-02-02T06:23:52.377Z,17.88
2023-02-02T06:26:19.385Z,13.93
2023-02-02T06:28:50.661Z,13.70
2023-02-02T06:31:19.729Z,13.55
2023-02-02T06:33:54.853Z,16.15
2023-02-02T06:36:22.800Z,22.55
2023-02-02T06:38:51.458Z,17.30
2023-02-02T06:41:20.294Z,19.20
2023-02-02T06:43:48.329Z,18.55
2023-02-02T06:46:15.367Z,16.20
2023-02-02T06:48:42.002Z,15.73
2023-02-02T06:51:08.750Z,13.30
2023-02-02T06:53:35.462Z,17.98
2023-02-02T06:56:04.707Z,15.25
2023-02-02T06:58:32.465Z,11.55
2023-02-02T07:01:14.147Z,12.75
2023-02-02T07:03:41.441Z,18.38
2023-02-02T07:06:22.857Z,11.18
2023-02-02T07:08:57.613Z,13.43
2023-02-02T07:11:31.217Z,13.50
2023-02-02T07:13:58.365Z,17.35
2023-02-02T07:16:25.030Z,14.40
2023-02-02T07:18:51.530Z,19.88
2023-02-02T07:21:23.638Z,23.95
2023-02-02T07:23:51.197Z,15.88
2023-02-02T07:26:19.047Z,24.50
2023-02-02T07:28:47.002Z,13.90
2023-02-02T07:31:22.490Z,13.90
2023-02-02T07:33:49.634Z,14.02
2023-02-02T07:36:18.996Z,17.58
2023-02-02T07:38:47.378Z,18.27
2023-02-02T07:41:15.712Z,15.32
2023-02-02T07:43:42.526Z,20.95
2023-02-02T07:46:10.606Z,11.15
2023-02-02T07:48:37.601Z,17.95
2023-02-02T07:51:06.507Z,17.30
2023-02-02T07:53:33.972Z,18.73
2023-02-02T07:56:11.869Z,15.32
2023-02-02T07:58:38.824Z,14.43
2023-02-02T08:01:07.649Z,24.45
2023-02-02T08:03:34.931Z,23.25
2023-02-02T08:06:01.914Z,15.57
2023-02-02T08:08:28.857Z,12.30
2023-02-02T08:10:55.413Z,11.93
2023-02-02T08:13:22.193Z,17.52
2023-02-02T08:15:48.791Z,15.52
2023-02-02T08:18:15.506Z,19.88
2023-02-02T08:20:43.224Z,18.10
2023-02-02T08:23:15.495Z,22.17
2023-02-02T08:25:42.912Z,18.58
2023-02-02T08:28:09.451Z,15.57
2023-02-02T08:30:36.241Z,19.25
2023-02-02T08:33:02.860Z,17.65
2023-02-02T08:35:30.148Z,13.60
2023-02-02T08:37:56.658Z,18.48
2023-02-02T08:40:23.204Z,17.58
2023-02-02T08:42:53.476Z,13.55
2023-02-02T08:46:04.139Z,16.88
2023-02-02T08:48:12.163Z,20.05
2023-02-02T08:50:39.352Z,18.73
2023-02-02T08:53:05.940Z,12.07
2023-02-02T08:55:32.575Z,15.02
2023-02-02T08:57:59.017Z,15.70
2023-02-02T09:00:25.909Z,16.23
2023-02-02T09:02:52.450Z,22.63
2023-02-02T09:05:19.115Z,15.38
2023-02-02T09:07:48.537Z,11.23
2023-02-02T09:10:15.449Z,18.92
2023-02-02T09:12:42.309Z,18.23
2023-02-02T09:15:09.271Z,16.85
2023-02-02T09:17:35.792Z,19.83
2023-02-02T09:20:02.389Z,15.90
2023-02-02T09:22:29.091Z,14.00
2023-02-02T09:24:55.857Z,18.27
2023-02-02T09:27:22.397Z,16.70
2023-02-02T09:29:48.934Z,12.40
2023-02-02T09:32:15.759Z,16.42
2023-02-02T09:34:42.471Z,18.33
2023-02-02T09:37:09.020Z,12.70
2023-02-02T09:39:36.055Z,16.33
2023-02-02T09:42:34.708Z,18.05
2023-02-02T09:45:18.705Z,16.13
2023-02-02T09:48:00.884Z,17.15
2023-02-02T09:50:42.028Z,19.40
2023-02-02T09:53:25.146Z,17.30
2023-02-02T09:55:54.002Z,17.02
2023-02-02T09:58:49.389Z,17.30
2023-02-02T10:01:20.006Z,14.65
2023-02-02T10:04:07.986Z,18.35
2023-02-02T10:06:41.145Z,14.45
2023-02-02T10:09:10.701Z,18.48
2023-02-02T10:11:45.684Z,18.65
2023-02-02T10:14:23.194Z,19.48
2023-02-02T10:16:53.852Z,17.05
2023-02-02T10:19:21.123Z,18.60
2023-02-02T10:22:04.550Z,15.55
2023-02-02T10:24:32.674Z,11.88
2023-02-02T10:27:04.346Z,18.08
2023-02-02T10:29:48.837Z,18.95
2023-02-02T10:32:26.981Z,12.15
2023-02-02T10:35:11.102Z,14.43
2023-02-02T10:37:51.170Z,15.80
2023-02-02T10:40:33.217Z,21.63
2023-02-02T10:43:33.879Z,16.55
2023-02-02T10:46:03.918Z,13.05
2023-02-02T10:48:38.040Z,13.38
2023-02-02T10:51:23.336Z,11.38
2023-02-02T10:53:52.649Z,11.23
2023-02-02T10:56:36.437Z,17.80
2023-02-02T10:59:12.059Z,15.60
2023-02-02T11:01:38.554Z,14.25
2023-02-02T11:04:25.516Z,18.33
2023-02-02T11:06:52.417Z,8.43
2023-02-02T11:09:39.405Z,12.25
2023-02-02T11:12:33.869Z,10.23
2023-02-02T11:15:25.384Z,14.00
2023-02-02T11:17:52.047Z,15.65
2023-02-02T11:20:33.965Z,15.88
2023-02-02T11:23:03.279Z,11.52
2023-02-02T11:25:40.228Z,14.45
2023-02-02T11:28:18.635Z,11.98
2023-02-02T11:30:52.330Z,10.77
2023-02-02T11:33:36.345Z,13.25
2023-02-02T11:36:19.061Z,14.65
2023-02-02T11:38:45.874Z,17.67
2023-02-02T11:41:17.084Z,12.07
2023-02-02T11:43:52.473Z,16.55
2023-02-02T11:46:29.137Z,10.23
2023-02-02T11:49:14.813Z,16.15
2023-02-02T11:51:42.713Z,13.70
2023-02-02T11:54:19.723Z,12.95
2023-02-02T11:56:52.899Z,9.18
2023-02-02T11:59:39.391Z,14.85
2023-02-02T12:02:31.058Z,13.07
2023-02-02T12:05:09.816Z,14.50
2023-02-02T12:07:37.458Z,16.50
2023-02-02T12:10:13.718Z,13.65
2023-02-02T12:12:50.220Z,17.10
2023-02-02T12:15:50.948Z,14.57
2023-02-02T12:18:46.710Z,14.07
2023-02-02T12:21:37.244Z,11.27
2023-02-02T12:24:25.767Z,15.57
2023-02-02T12:27:15.633Z,15.32
2023-02-02T12:30:09.206Z,14.15
2023-02-02T12:32:50.027Z,10.52
2023-02-02T12:35:33.077Z,16.85
2023-02-02T12:38:29.864Z,13.05
2023-02-02T12:41:14.843Z,9.40
2023-02-02T12:44:00.049Z,9.60
2023-02-02T12:46:26.782Z,13.07
2023-02-02T12:49:18.985Z,9.73
2023-02-02T12:52:20.078Z,9.30
2023-02-02T12:55:15.124Z,9.52
2023-02-02T12:58:07.046Z,11.50
2023-02-02T13:00:48.569Z,10.55
2023-02-02T13:03:23.603Z,8.88
2023-02-02T13:06:02.335Z,5.32
2023-02-02T13:08:55.933Z,9.57
2023-02-02T13:11:36.340Z,9.10
2023-02-02T13:14:18.857Z,12.05
2023-02-02T13:16:49.354Z,12.02
2023-02-02T13:19:48.783Z,12.25
2023-02-02T13:22:26.518Z,11.25
2023-02-02T13:24:56.644Z,10.18
2023-02-02T13:27:24.885Z,12.38
2023-02-02T13:30:01.824Z,8.45
2023-02-02T13:32:36.433Z,6.40
2023-02-02T13:35:12.253Z,10.85
2023-02-02T13:37:57.523Z,5.63
2023-02-02T13:40:27.293Z,8.73
2023-02-02T13:43:32.666Z,9.40
2023-02-02T13:46:17.363Z,5.20
2023-02-02T13:48:54.932Z,9.68
2023-02-02T13:51:44.371Z,8.18
2023-02-02T13:54:50.392Z,6.95
2023-02-02T13:57:36.087Z,11.30
2023-02-02T14:00:23.396Z,5.75
2023-02-02T14:03:06.681Z,5.95
2023-02-02T14:05:41.535Z,5.43
2023-02-02T14:08:20.777Z,6.95
2023-02-02T14:10:53.765Z,7.63
2023-02-02T14:13:43.456Z,7.32
2023-02-02T14:16:41.550Z,6.63
2023-02-02T14:19:16.648Z,8.50
2023-02-02T14:21:43.099Z,8.02
2023-02-02T14:24:28.604Z,8.07
2023-02-02T14:26:55.262Z,8.25
2023-02-02T14:29:39.602Z,10.18
2023-02-02T14:32:11.353Z,6.15
2023-02-02T14:34:42.656Z,6.18
2023-02-02T14:37:25.414Z,7.75
2023-02-02T14:40:08.933Z,14.32
2023-02-02T14:43:06.531Z,6.03
2023-02-02T14:45:34.606Z,7.32
2023-02-02T14:48:09.122Z,8.10
2023-02-02T14:50:38.884Z,8.27
2023-02-02T14:53:34.926Z,5.95
2023-02-02T14:56:08.863Z,4.25
2023-02-02T14:59:00.010Z,5.47
2023-02-02T15:01:30.972Z,7.90
2023-02-02T15:04:00.653Z,6.25
2023-02-02T15:06:30.120Z,12.65
2023-02-02T15:09:23.171Z,5.90
2023-02-02T15:12:00.894Z,7.07
2023-02-02T15:14:36.643Z,5.43
2023-02-02T15:17:12.511Z,9.30
2023-02-02T15:19:45.002Z,6.18
2023-02-02T15:22:32.081Z,5.47
2023-02-02T15:25:04.772Z,9.30
2023-02-02T15:27:31.839Z,9.82
2023-02-02T15:30:04.184Z,5.28
2023-02-02T15:32:31.621Z,9.18
2023-02-02T15:35:02.898Z,5.20
2023-02-02T15:37:40.045Z,13.07
2023-02-02T15:40:21.603Z,11.13
2023-02-02T15:43:01.462Z,5.35
2023-02-02T15:45:28.126Z,12.02
2023-02-02T15:47:57.454Z,11.32
2023-02-02T15:50:25.554Z,14.03
2023-02-02T15:52:53.716Z,11.88
2023-02-02T15:55:36.088Z,19.40
2023-02-02T15:58:03.198Z,10.80
2023-02-02T16:00:30.138Z,16.27
2023-02-02T16:03:19.453Z,11.88
2023-02-02T16:05:54.467Z,10.68
2023-02-02T16:08:35.033Z,13.73
2023-02-02T16:11:08.874Z,16.88
2023-02-02T16:13:36.530Z,11.07
2023-02-02T16:16:08.937Z,15.50
2023-02-02T16:18:37.877Z,9.65
2023-02-02T16:21:14.617Z,20.83
2023-02-02T16:23:41.740Z,13.23
2023-02-02T16:26:13.035Z,13.95
2023-02-02T16:28:40.000Z,8.88
2023-02-02T16:31:07.204Z,14.82
2023-02-02T16:33:46.091Z,15.68
2023-02-02T16:36:29.674Z,14.93
2023-02-02T16:38:59.783Z,17.25
2023-02-02T16:41:36.583Z,9.10
2023-02-02T16:44:29.810Z,11.73
2023-02-02T16:46:56.895Z,16.55
2023-02-02T16:49:28.896Z,15.50
2023-02-02T16:52:21.076Z,19.98
2023-02-02T16:54:54.405Z,12.00
2023-02-02T16:57:34.156Z,12.93
2023-02-02T17:00:06.331Z,13.30
2023-02-02T17:02:41.937Z,11.15
2023-02-02T17:05:29.109Z,17.48
2023-02-02T17:08:03.928Z,10.98
2023-02-02T17:10:38.251Z,12.90
2023-02-02T17:13:30.467Z,12.77
2023-02-02T17:15:57.755Z,12.25
2023-02-02T17:18:24.589Z,11.48
2023-02-02T17:20:57.727Z,13.80
2023-02-02T17:23:26.691Z,11.30
2023-02-02T17:25:54.419Z,14.35
2023-02-02T17:28:24.030Z,11.20
2023-02-02T17:31:03.233Z,15.60
2023-02-02T17:33:34.201Z,10.55
2023-02-02T17:36:01.152Z,8.98
2023-02-02T17:38:28.319Z,14.02
2023-02-02T17:40:58.133Z,13.48
2023-02-02T17:43:26.073Z,7.22
2023-02-02T17:45:53.165Z,10.23
2023-02-02T17:48:20.719Z,7.47
2023-02-02T17:50:47.577Z,9.13
2023-02-02T17:53:17.508Z,8.82
2023-02-02T17:55:46.267Z,6.03
2023-02-02T17:58:17.054Z,10.27
2023-02-02T18:00:51.645Z,8.93
2023-02-02T18:03:23.624Z,9.80
2023-02-02T18:05:50.428Z,6.88
2023-02-02T18:08:16.969Z,11.82
2023-02-02T18:10:44.175Z,7.80
2023-02-02T18:13:16.070Z,11.88
2023-02-02T18:15:43.911Z,7.95
2023-02-02T18:18:12.368Z,12.20
2023-02-02T18:20:46.697Z,11.95
2023-02-02T18:23:18.623Z,10.20
2023-02-02T18:25:47.376Z,11.23
2023-02-02T18:28:17.345Z,7.28
2023-02-02T18:30:45.337Z,12.75
2023-02-02T18:33:13.173Z,12.18
2023-02-02T18:35:45.400Z,10.75
2023-02-02T18:38:12.920Z,11.15
2023-02-02T18:40:39.504Z,8.63
2023-02-02T18:43:06.440Z,9.15
2023-02-02T18:45:32.981Z,8.40
2023-02-02T18:47:59.535Z,14.25
2023-02-02T18:50:26.168Z,9.02
2023-02-02T18:52:53.084Z,12.85
2023-02-02T18:55:19.665Z,8.63
2023-02-02T18:57:46.385Z,9.88
2023-02-02T19:00:13.374Z,6.68
2023-02-02T19:02:40.406Z,9.32
2023-02-02T19:05:26.456Z,9.93
2023-02-02T19:07:56.138Z,10.38
2023-02-02T19:10:24.897Z,8.83
2023-02-02T19:13:06.756Z,12.00
2023-02-02T19:15:37.693Z,14.50
2023-02-02T19:18:12.222Z,11.60
2023-02-02T19:20:38.845Z,12.65
2023-02-02T19:23:16.656Z,9.73
2023-02-02T19:25:51.256Z,16.05
2023-02-02T19:28:23.290Z,13.02
2023-02-02T19:30:53.137Z,6.20
2023-02-02T19:33:21.681Z,9.90
2023-02-02T19:35:52.233Z,8.18
2023-02-02T19:38:20.587Z,10.02
2023-02-02T19:40:47.742Z,8.23
2023-02-02T19:43:25.090Z,10.80
2023-02-02T19:45:53.431Z,9.15
2023-02-02T19:48:24.580Z,7.70
2023-02-02T19:50:51.563Z,10.23
2023-02-02T19:53:28.502Z,7.40
2023-02-02T19:55:55.067Z,7.88
2023-02-02T19:58:26.987Z,9.43
2023-02-02T20:00:55.647Z,8.27
2023-02-02T20:03:28.188Z,7.97
2023-02-02T20:05:56.841Z,8.43
2023-02-02T20:08:31.918Z,9.85
2023-02-02T20:11:01.606Z,8.27
2023-02-02T20:13:31.367Z,9.73
2023-02-02T20:16:03.829Z,8.75
2023-02-02T20:18:33.683Z,7.50
2023-02-02T20:21:00.556Z,7.38
2023-02-02T20:23:40.921Z,8.82
2023-02-02T20:28:46.095Z,7.80
2023-02-02T20:31:17.783Z,7.60
2023-02-02T20:33:48.049Z,9.13
2023-02-02T20:36:37.557Z,10.68
2023-02-02T20:39:35.520Z,5.32
2023-02-02T20:42:03.358Z,6.20
2023-02-02T20:44:31.916Z,11.20
2023-02-02T20:47:00.296Z,10.35
2023-02-02T20:49:28.908Z,13.40
2023-02-02T20:51:56.714Z,7.60
2023-02-02T20:54:24.461Z,8.43
2023-02-02T20:56:51.995Z,9.80
2023-02-02T20:59:20.133Z,16.63
2023-02-02T21:01:50.091Z,11.85
2023-02-02T21:04:17.643Z,12.05
2023-02-02T21:06:44.745Z,12.02
2023-02-02T21:09:12.316Z,8.38
2023-02-02T21:11:38.899Z,9.68
2023-02-02T21:14:05.919Z,8.27
2023-02-02T21:16:33.388Z,11.73
2023-02-02T21:19:00.926Z,11.15
2023-02-02T21:21:27.733Z,7.20
2023-02-02T21:23:56.422Z,8.35
2023-02-02T21:26:27.397Z,7.47
2023-02-02T21:28:54.138Z,9.88
2023-02-02T21:31:21.421Z,13.43
2023-02-02T21:33:50.578Z,13.00
2023-02-02T21:36:43.839Z,11.88
2023-02-02T21:39:30.837Z,16.70
2023-02-02T21:42:09.729Z,11.93
2023-02-02T21:45:05.048Z,9.20
2023-02-02T21:47:40.715Z,11.10
2023-02-02T21:50:19.723Z,13.35
2023-02-02T21:52:49.336Z,17.40
2023-02-02T21:55:25.056Z,11.95
2023-02-02T21:57:51.520Z,10.55
2023-02-02T22:00:32.616Z,13.98
2023-02-02T22:02:59.996Z,12.23
2023-02-02T22:05:33.203Z,19.58
2023-02-02T22:08:03.022Z,9.40
2023-02-02T22:10:36.375Z,11.15
2023-02-02T22:13:33.912Z,18.92
2023-02-02T22:16:00.640Z,16.25
2023-02-02T22:18:29.162Z,8.63
2023-02-02T22:20:56.417Z,19.85
2023-02-02T22:23:26.858Z,17.85
2023-02-02T22:25:56.585Z,13.82
2023-02-02T22:28:26.577Z,12.80
2023-02-02T22:30:55.092Z,11.90
2023-02-02T22:33:23.337Z,12.57
2023-02-02T22:35:50.848Z,12.07
2023-02-02T22:38:20.472Z,10.00
2023-02-02T22:40:48.199Z,9.43
2023-02-02T22:43:16.508Z,7.85
2023-02-02T22:45:44.054Z,11.68
2023-02-02T22:48:11.824Z,13.70
2023-02-02T22:50:38.645Z,9.63
2023-02-02T22:53:05.554Z,10.48
2023-02-02T22:55:33.253Z,13.52
2023-02-02T22:57:59.867Z,9.02
2023-02-02T23:00:32.902Z,9.73
2023-02-02T23:02:59.817Z,17.73
2023-02-02T23:05:27.787Z,10.68
2023-02-02T23:07:55.325Z,9.82
2023-02-02T23:10:27.738Z,14.02
2023-02-02T23:12:58.167Z,9.30
2023-02-02T23:15:24.968Z,10.85
2023-02-02T23:17:52.043Z,13.75
2023-02-02T23:20:19.068Z,10.65
2023-02-02T23:22:45.806Z,10.65
2023-02-02T23:25:14.101Z,11.38
2023-02-02T23:27:40.921Z,12.43
2023-02-02T23:30:08.957Z,14.70
2023-02-02T23:32:35.795Z,6.28
2023-02-02T23:35:03.192Z,8.45
2023-02-02T23:37:29.906Z,15.10
2023-02-02T23:39:56.416Z,15.93
2023-02-02T23:42:23.392Z,7.72
2023-02-02T23:44:49.953Z,10.82
2023-02-02T23:47:17.189Z,11.30
2023-02-02T23:49:44.059Z,11.43
2023-02-02T23:52:11.208Z,10.60
2023-02-02T23:54:38.274Z,8.30
2023-02-02T23:57:05.381Z,10.52
2023-02-02T23:59:31.812Z,12.50
